Aeroporto :
LOGIN :

Iscrizione | Disclaimer

   EN    FR    IT 

 










Sommario :    VFR   VFR Marginale   IFR   IFR Intensivo   IFR Molto Intensivo
Visibilità : 
Base nubi : 
>= 8 km
>= 3000ft
5 / 8 km
1000 / 3000 ft
1500m / 5 km
500 / 1000 ft
800 / 1500m
200 / 500 ft
< 800m
< 200 ft
Simboli :   Temporali  Nebbia  Neve Forte  Precipitazioni Forti  Vento > 20 kt
SIGMETs :   Varie  Temporali  Ghiacco  Turbolenza  Onda orograficha  Ceneri Vulcaniche







- Altitudine del aeroporto : 144 ft
- Codice IATA : PGF
- Carte del aeroporto


LFMP - Perpignan

ULTIMO METAR :
  • 191500Z AUTO 32013KT 290V350 9999 FEW056/// 20/06 Q1008 NOSIG

METARs OBSOLETI :
  • 191430Z AUTO 33016KT 290V350 9999 FEW058/// 20/06 Q1008 NOSIG
  • 191400Z AUTO 33015KT 300V360 9999 NCD 19/06 Q1008 TEMPO 30015G30KT
  • 191330Z AUTO 33017KT 300V360 9999 FEW058/// 20/06 Q1008 TEMPO 30015G30KT
  • 191300Z AUTO 34017KT 300V360 9999 FEW058/// 19/05 Q1008 TEMPO 30015G30KT
  • 191230Z AUTO 33017KT 300V010 9999 SCT062/// 19/06 Q1008 TEMPO 30015G30KT

TAF TAF LFMP
Valido dal 19 a 15 ore il 20 a 15 ore UTC


191400Z 1915/2015 33015KT 9999 FEW050 OVC060
TEMPO 1923/2009 30015G30KT
ATIS : +33 4 68 63 75 12
Nessun NOTAM noto per questo aeroporto.



MetMap, La meteo Aeronautica in un colpo d'occhio ! - Copyright ORBIFLY Dicembre 2007 - Disclaimer

ORBIFLY MET'MAP TEAM :

Programmazione e sviluppo : Alexandra Zaïnal
Concezione e sviluppo : Baudouin d'Aumeries
Co-Programmazione e sviluppo : Marc-Olivier Méhu
Supporto tecnico e logistico : Manuel Goepfert
Aiuto per la traduzione : Arnaldo La Scala

Contatto : metmap@orbifly.com




FONTI E CREDITI :

   NOAA